sensor_id;sensor_type;location;lat;lon;timestamp;P1;durP1;ratioP1;P2;durP2;ratioP2
15381;SDS011;7789;51.364;12.358;2023-07-24T00:05:03;1.70;;;1.45;;
15381;SDS011;7789;51.364;12.358;2023-07-24T00:15:40;1.80;;;1.55;;
15381;SDS011;7789;51.364;12.358;2023-07-24T00:20:44;2.53;;;2.05;;
15381;SDS011;7789;51.364;12.358;2023-07-24T00:25:53;4.20;;;1.50;;
15381;SDS011;7789;51.364;12.358;2023-07-24T00:31:25;3.30;;;1.65;;
15381;SDS011;7789;51.364;12.358;2023-07-24T00:36:49;2.78;;;1.40;;
15381;SDS011;7789;51.364;12.358;2023-07-24T00:42:00;1.55;;;1.45;;
15381;SDS011;7789;51.364;12.358;2023-07-24T00:47:05;1.90;;;1.40;;
15381;SDS011;7789;51.364;12.358;2023-07-24T00:52:17;3.55;;;1.75;;
15381;SDS011;7789;51.364;12.358;2023-07-24T00:57:27;1.75;;;1.63;;
15381;SDS011;7789;51.364;12.358;2023-07-24T01:02:38;2.38;;;1.65;;
15381;SDS011;7789;51.364;12.358;2023-07-24T01:07:49;1.95;;;1.42;;
15381;SDS011;7789;51.364;12.358;2023-07-24T01:13:00;1.75;;;1.65;;
15381;SDS011;7789;51.364;12.358;2023-07-24T01:18:11;2.65;;;1.63;;
15381;SDS011;7789;51.364;12.358;2023-07-24T01:23:24;2.42;;;1.65;;
15381;SDS011;7789;51.364;12.358;2023-07-24T01:28:52;1.63;;;1.52;;
15381;SDS011;7789;51.364;12.358;2023-07-24T01:34:05;1.77;;;1.45;;
15381;SDS011;7789;51.364;12.358;2023-07-24T01:39:12;1.85;;;1.50;;
15381;SDS011;7789;51.364;12.358;2023-07-24T01:44:23;2.53;;;1.35;;
15381;SDS011;7789;51.364;12.358;2023-07-24T01:49:45;4.15;;;1.77;;
15381;SDS011;7789;51.364;12.358;2023-07-24T01:54:55;3.45;;;1.80;;
15381;SDS011;7789;51.364;12.358;2023-07-24T02:00:11;1.92;;;1.50;;
15381;SDS011;7789;51.364;12.358;2023-07-24T02:05:24;2.08;;;1.35;;
15381;SDS011;7789;51.364;12.358;2023-07-24T02:10:49;2.42;;;1.67;;
15381;SDS011;7789;51.364;12.358;2023-07-24T02:15:58;2.00;;;1.80;;
15381;SDS011;7789;51.364;12.358;2023-07-24T02:21:09;2.10;;;1.67;;
15381;SDS011;7789;51.364;12.358;2023-07-24T02:26:13;2.72;;;1.80;;
15381;SDS011;7789;51.364;12.358;2023-07-24T02:31:19;2.50;;;1.88;;
15381;SDS011;7789;51.364;12.358;2023-07-24T02:36:33;3.88;;;2.08;;
15381;SDS011;7789;51.364;12.358;2023-07-24T02:41:44;2.72;;;2.35;;
15381;SDS011;7789;51.364;12.358;2023-07-24T02:46:55;3.65;;;2.28;;
15381;SDS011;7789;51.364;12.358;2023-07-24T02:52:02;5.68;;;2.28;;
15381;SDS011;7789;51.364;12.358;2023-07-24T02:57:08;5.78;;;2.90;;
15381;SDS011;7789;51.364;12.358;2023-07-24T03:02:28;4.78;;;2.25;;
15381;SDS011;7789;51.364;12.358;2023-07-24T03:07:35;3.92;;;2.33;;
15381;SDS011;7789;51.364;12.358;2023-07-24T03:12:47;9.80;;;2.85;;
15381;SDS011;7789;51.364;12.358;2023-07-24T03:17:57;8.93;;;2.33;;
15381;SDS011;7789;51.364;12.358;2023-07-24T03:23:01;6.15;;;2.40;;
15381;SDS011;7789;51.364;12.358;2023-07-24T03:28:09;5.18;;;2.78;;
15381;SDS011;7789;51.364;12.358;2023-07-24T03:33:18;5.85;;;2.53;;
15381;SDS011;7789;51.364;12.358;2023-07-24T03:38:27;7.43;;;2.78;;
15381;SDS011;7789;51.364;12.358;2023-07-24T03:43:38;5.50;;;2.50;;
15381;SDS011;7789;51.364;12.358;2023-07-24T03:48:51;3.47;;;2.45;;
15381;SDS011;7789;51.364;12.358;2023-07-24T03:54:00;4.30;;;2.55;;
15381;SDS011;7789;51.364;12.358;2023-07-24T03:59:21;3.55;;;2.67;;
15381;SDS011;7789;51.364;12.358;2023-07-24T04:04:55;6.03;;;2.40;;
15381;SDS011;7789;51.364;12.358;2023-07-24T04:10:06;2.88;;;2.30;;
15381;SDS011;7789;51.364;12.358;2023-07-24T04:15:42;2.92;;;2.50;;
15381;SDS011;7789;51.364;12.358;2023-07-24T04:20:55;5.70;;;2.40;;
15381;SDS011;7789;51.364;12.358;2023-07-24T04:26:04;5.00;;;2.38;;
15381;SDS011;7789;51.364;12.358;2023-07-24T04:31:10;4.53;;;2.90;;
15381;SDS011;7789;51.364;12.358;2023-07-24T04:36:21;5.70;;;2.90;;
15381;SDS011;7789;51.364;12.358;2023-07-24T04:41:27;3.88;;;3.00;;
15381;SDS011;7789;51.364;12.358;2023-07-24T04:46:33;5.70;;;3.13;;
15381;SDS011;7789;51.364;12.358;2023-07-24T04:51:44;4.88;;;2.30;;
15381;SDS011;7789;51.364;12.358;2023-07-24T04:56:53;4.25;;;2.20;;
15381;SDS011;7789;51.364;12.358;2023-07-24T05:02:02;3.22;;;2.42;;
15381;SDS011;7789;51.364;12.358;2023-07-24T05:07:16;2.70;;;2.30;;
15381;SDS011;7789;51.364;12.358;2023-07-24T05:12:27;3.58;;;2.72;;
15381;SDS011;7789;51.364;12.358;2023-07-24T05:17:35;5.20;;;2.72;;
15381;SDS011;7789;51.364;12.358;2023-07-24T05:22:48;4.30;;;2.80;;
15381;SDS011;7789;51.364;12.358;2023-07-24T05:27:54;3.50;;;2.53;;
15381;SDS011;7789;51.364;12.358;2023-07-24T05:33:00;2.50;;;2.30;;
15381;SDS011;7789;51.364;12.358;2023-07-24T05:38:10;2.63;;;2.42;;
15381;SDS011;7789;51.364;12.358;2023-07-24T05:43:16;8.68;;;6.00;;
15381;SDS011;7789;51.364;12.358;2023-07-24T05:48:29;4.60;;;2.88;;
15381;SDS011;7789;51.364;12.358;2023-07-24T05:53:40;4.47;;;2.47;;
15381;SDS011;7789;51.364;12.358;2023-07-24T05:58:54;5.97;;;2.65;;
15381;SDS011;7789;51.364;12.358;2023-07-24T06:04:02;6.45;;;2.60;;
15381;SDS011;7789;51.364;12.358;2023-07-24T06:09:16;4.53;;;2.65;;
15381;SDS011;7789;51.364;12.358;2023-07-24T06:14:24;3.20;;;2.72;;
15381;SDS011;7789;51.364;12.358;2023-07-24T06:19:36;4.22;;;2.65;;
15381;SDS011;7789;51.364;12.358;2023-07-24T06:24:48;2.67;;;2.47;;
15381;SDS011;7789;51.364;12.358;2023-07-24T06:29:55;4.32;;;2.47;;
15381;SDS011;7789;51.364;12.358;2023-07-24T06:35:16;3.20;;;2.38;;
15381;SDS011;7789;51.364;12.358;2023-07-24T06:40:38;2.65;;;2.42;;
15381;SDS011;7789;51.364;12.358;2023-07-24T06:45:48;3.65;;;2.92;;
15381;SDS011;7789;51.364;12.358;2023-07-24T06:51:16;4.97;;;3.03;;
15381;SDS011;7789;51.364;12.358;2023-07-24T06:56:29;4.32;;;2.70;;
15381;SDS011;7789;51.364;12.358;2023-07-24T07:01:39;3.30;;;2.92;;
15381;SDS011;7789;51.364;12.358;2023-07-24T07:06:49;3.50;;;2.63;;
15381;SDS011;7789;51.364;12.358;2023-07-24T07:12:01;3.22;;;2.83;;
15381;SDS011;7789;51.364;12.358;2023-07-24T07:17:25;3.65;;;2.95;;
15381;SDS011;7789;51.364;12.358;2023-07-24T07:22:37;3.05;;;2.60;;
15381;SDS011;7789;51.364;12.358;2023-07-24T07:27:43;3.38;;;2.70;;
15381;SDS011;7789;51.364;12.358;2023-07-24T07:32:49;3.22;;;2.95;;
15381;SDS011;7789;51.364;12.358;2023-07-24T07:37:55;3.17;;;2.80;;
15381;SDS011;7789;51.364;12.358;2023-07-24T07:43:05;4.10;;;3.38;;
15381;SDS011;7789;51.364;12.358;2023-07-24T07:48:17;3.15;;;2.83;;
15381;SDS011;7789;51.364;12.358;2023-07-24T07:53:30;3.85;;;3.38;;
15381;SDS011;7789;51.364;12.358;2023-07-24T07:58:41;3.85;;;3.33;;
15381;SDS011;7789;51.364;12.358;2023-07-24T08:03:49;3.58;;;3.20;;
15381;SDS011;7789;51.364;12.358;2023-07-24T08:08:59;3.70;;;3.40;;
15381;SDS011;7789;51.364;12.358;2023-07-24T08:14:22;4.28;;;3.20;;
15381;SDS011;7789;51.364;12.358;2023-07-24T08:19:37;4.60;;;3.45;;
15381;SDS011;7789;51.364;12.358;2023-07-24T08:24:56;3.72;;;3.05;;
15381;SDS011;7789;51.364;12.358;2023-07-24T08:30:09;4.43;;;3.90;;
15381;SDS011;7789;51.364;12.358;2023-07-24T08:35:22;5.45;;;3.13;;
15381;SDS011;7789;51.364;12.358;2023-07-24T08:40:29;5.80;;;3.50;;
15381;SDS011;7789;51.364;12.358;2023-07-24T08:45:38;4.32;;;3.40;;
15381;SDS011;7789;51.364;12.358;2023-07-24T08:50:56;4.15;;;3.60;;
15381;SDS011;7789;51.364;12.358;2023-07-24T08:56:02;3.97;;;3.20;;
15381;SDS011;7789;51.364;12.358;2023-07-24T09:01:26;3.90;;;3.03;;
15381;SDS011;7789;51.364;12.358;2023-07-24T09:06:30;3.85;;;3.25;;
15381;SDS011;7789;51.364;12.358;2023-07-24T09:11:45;4.97;;;3.33;;
15381;SDS011;7789;51.364;12.358;2023-07-24T09:22:27;6.72;;;3.10;;
15381;SDS011;7789;51.364;12.358;2023-07-24T09:27:32;3.47;;;3.00;;
15381;SDS011;7789;51.364;12.358;2023-07-24T09:32:43;8.80;;;3.35;;
15381;SDS011;7789;51.364;12.358;2023-07-24T09:38:02;5.57;;;3.28;;
15381;SDS011;7789;51.364;12.358;2023-07-24T09:43:26;4.60;;;3.78;;
15381;SDS011;7789;51.364;12.358;2023-07-24T09:48:53;5.57;;;3.90;;
15381;SDS011;7789;51.364;12.358;2023-07-24T09:54:13;5.70;;;3.30;;
15381;SDS011;7789;51.364;12.358;2023-07-24T09:59:27;7.38;;;3.50;;
15381;SDS011;7789;51.364;12.358;2023-07-24T10:04:44;4.97;;;3.80;;
15381;SDS011;7789;51.364;12.358;2023-07-24T10:09:58;4.68;;;4.18;;
15381;SDS011;7789;51.364;12.358;2023-07-24T10:15:09;5.68;;;4.18;;
15381;SDS011;7789;51.364;12.358;2023-07-24T10:20:40;4.80;;;4.30;;
15381;SDS011;7789;51.364;12.358;2023-07-24T10:25:49;10.50;;;4.45;;
15381;SDS011;7789;51.364;12.358;2023-07-24T10:30:59;5.38;;;4.50;;
15381;SDS011;7789;51.364;12.358;2023-07-24T10:36:07;5.85;;;5.00;;
15381;SDS011;7789;51.364;12.358;2023-07-24T10:41:19;5.30;;;4.35;;
15381;SDS011;7789;51.364;12.358;2023-07-24T10:46:37;7.07;;;5.03;;
15381;SDS011;7789;51.364;12.358;2023-07-24T10:52:02;6.72;;;4.78;;
15381;SDS011;7789;51.364;12.358;2023-07-24T11:02:59;14.13;;;5.25;;
15381;SDS011;7789;51.364;12.358;2023-07-24T11:08:20;5.88;;;4.93;;
15381;SDS011;7789;51.364;12.358;2023-07-24T11:13:32;5.68;;;5.15;;
15381;SDS011;7789;51.364;12.358;2023-07-24T11:18:46;6.55;;;4.72;;
15381;SDS011;7789;51.364;12.358;2023-07-24T11:29:47;45.83;;;7.70;;
15381;SDS011;7789;51.364;12.358;2023-07-24T11:35:04;8.57;;;5.25;;
15381;SDS011;7789;51.364;12.358;2023-07-24T11:40:13;6.97;;;5.68;;
15381;SDS011;7789;51.364;12.358;2023-07-24T11:45:22;6.18;;;5.13;;
15381;SDS011;7789;51.364;12.358;2023-07-24T11:50:40;5.65;;;5.05;;
15381;SDS011;7789;51.364;12.358;2023-07-24T11:56:12;7.38;;;5.20;;
15381;SDS011;7789;51.364;12.358;2023-07-24T12:01:22;11.68;;;5.13;;
15381;SDS011;7789;51.364;12.358;2023-07-24T12:06:58;7.43;;;5.75;;
15381;SDS011;7789;51.364;12.358;2023-07-24T12:12:10;5.97;;;5.38;;
15381;SDS011;7789;51.364;12.358;2023-07-24T12:17:33;9.13;;;5.57;;
15381;SDS011;7789;51.364;12.358;2023-07-24T12:22:38;7.53;;;5.90;;
15381;SDS011;7789;51.364;12.358;2023-07-24T12:27:58;7.90;;;6.00;;
15381;SDS011;7789;51.364;12.358;2023-07-24T12:33:06;6.32;;;5.68;;
15381;SDS011;7789;51.364;12.358;2023-07-24T12:38:42;6.18;;;5.50;;
15381;SDS011;7789;51.364;12.358;2023-07-24T12:43:51;7.00;;;5.35;;
15381;SDS011;7789;51.364;12.358;2023-07-24T12:48:57;9.45;;;6.35;;
15381;SDS011;7789;51.364;12.358;2023-07-24T12:54:21;7.25;;;5.60;;
15381;SDS011;7789;51.364;12.358;2023-07-24T12:59:59;7.50;;;5.70;;
15381;SDS011;7789;51.364;12.358;2023-07-24T13:05:07;8.10;;;5.65;;
15381;SDS011;7789;51.364;12.358;2023-07-24T13:10:14;7.05;;;5.47;;
15381;SDS011;7789;51.364;12.358;2023-07-24T13:15:33;7.28;;;5.78;;
15381;SDS011;7789;51.364;12.358;2023-07-24T13:20:59;7.28;;;5.65;;
15381;SDS011;7789;51.364;12.358;2023-07-24T13:26:19;9.07;;;6.22;;
15381;SDS011;7789;51.364;12.358;2023-07-24T13:31:36;7.40;;;5.63;;
15381;SDS011;7789;51.364;12.358;2023-07-24T13:36:44;8.77;;;6.28;;
15381;SDS011;7789;51.364;12.358;2023-07-24T13:41:56;7.57;;;5.78;;
15381;SDS011;7789;51.364;12.358;2023-07-24T13:47:22;7.35;;;5.20;;
15381;SDS011;7789;51.364;12.358;2023-07-24T13:52:35;6.45;;;5.85;;
15381;SDS011;7789;51.364;12.358;2023-07-24T13:57:43;10.10;;;5.80;;
15381;SDS011;7789;51.364;12.358;2023-07-24T14:08:48;6.35;;;5.75;;
15381;SDS011;7789;51.364;12.358;2023-07-24T14:14:17;7.65;;;5.90;;
15381;SDS011;7789;51.364;12.358;2023-07-24T14:19:34;9.93;;;5.70;;
15381;SDS011;7789;51.364;12.358;2023-07-24T14:24:52;6.25;;;5.50;;
15381;SDS011;7789;51.364;12.358;2023-07-24T14:30:00;8.20;;;6.25;;
15381;SDS011;7789;51.364;12.358;2023-07-24T14:35:15;7.00;;;5.78;;
15381;SDS011;7789;51.364;12.358;2023-07-24T14:40:38;10.10;;;5.93;;
15381;SDS011;7789;51.364;12.358;2023-07-24T14:45:51;8.18;;;5.82;;
15381;SDS011;7789;51.364;12.358;2023-07-24T14:51:06;8.15;;;5.93;;
15381;SDS011;7789;51.364;12.358;2023-07-24T14:56:34;8.68;;;6.15;;
15381;SDS011;7789;51.364;12.358;2023-07-24T15:02:03;7.45;;;5.93;;
15381;SDS011;7789;51.364;12.358;2023-07-24T15:07:16;7.82;;;5.80;;
15381;SDS011;7789;51.364;12.358;2023-07-24T15:12:31;6.22;;;5.00;;
15381;SDS011;7789;51.364;12.358;2023-07-24T15:23:30;7.57;;;5.20;;
15381;SDS011;7789;51.364;12.358;2023-07-24T15:28:42;10.00;;;5.40;;
15381;SDS011;7789;51.364;12.358;2023-07-24T15:34:04;7.07;;;5.70;;
15381;SDS011;7789;51.364;12.358;2023-07-24T15:39:27;8.07;;;5.82;;
15381;SDS011;7789;51.364;12.358;2023-07-24T15:44:44;7.75;;;5.53;;
15381;SDS011;7789;51.364;12.358;2023-07-24T15:50:00;7.03;;;5.45;;
15381;SDS011;7789;51.364;12.358;2023-07-24T15:55:12;7.15;;;5.40;;
15381;SDS011;7789;51.364;12.358;2023-07-24T16:00:25;7.03;;;5.85;;
15381;SDS011;7789;51.364;12.358;2023-07-24T16:05:38;5.72;;;5.13;;
15381;SDS011;7789;51.364;12.358;2023-07-24T16:10:53;8.23;;;5.40;;
15381;SDS011;7789;51.364;12.358;2023-07-24T16:16:12;7.93;;;5.35;;
15381;SDS011;7789;51.364;12.358;2023-07-24T16:21:22;7.95;;;5.50;;
15381;SDS011;7789;51.364;12.358;2023-07-24T16:26:33;6.78;;;5.53;;
15381;SDS011;7789;51.364;12.358;2023-07-24T16:31:44;8.27;;;4.85;;
15381;SDS011;7789;51.364;12.358;2023-07-24T16:37:10;6.15;;;4.72;;
15381;SDS011;7789;51.364;12.358;2023-07-24T16:42:22;5.97;;;4.75;;
15381;SDS011;7789;51.364;12.358;2023-07-24T16:47:36;5.22;;;4.72;;
15381;SDS011;7789;51.364;12.358;2023-07-24T16:52:56;9.27;;;5.38;;
15381;SDS011;7789;51.364;12.358;2023-07-24T16:58:14;6.70;;;4.90;;
15381;SDS011;7789;51.364;12.358;2023-07-24T17:03:18;7.60;;;4.78;;
15381;SDS011;7789;51.364;12.358;2023-07-24T17:08:29;5.40;;;4.25;;
15381;SDS011;7789;51.364;12.358;2023-07-24T17:13:37;6.93;;;5.13;;
15381;SDS011;7789;51.364;12.358;2023-07-24T17:18:45;5.50;;;4.90;;
15381;SDS011;7789;51.364;12.358;2023-07-24T17:24:10;5.13;;;3.47;;
15381;SDS011;7789;51.364;12.358;2023-07-24T17:29:23;16.85;;;3.30;;
15381;SDS011;7789;51.364;12.358;2023-07-24T17:34:39;7.93;;;2.30;;
15381;SDS011;7789;51.364;12.358;2023-07-24T17:39:51;6.85;;;2.30;;
15381;SDS011;7789;51.364;12.358;2023-07-24T17:45:20;4.82;;;1.77;;
15381;SDS011;7789;51.364;12.358;2023-07-24T17:56:02;4.68;;;2.20;;
15381;SDS011;7789;51.364;12.358;2023-07-24T18:01:30;5.88;;;2.45;;
15381;SDS011;7789;51.364;12.358;2023-07-24T18:06:51;7.18;;;2.25;;
15381;SDS011;7789;51.364;12.358;2023-07-24T18:12:01;5.63;;;2.13;;
15381;SDS011;7789;51.364;12.358;2023-07-24T18:17:19;3.83;;;1.83;;
15381;SDS011;7789;51.364;12.358;2023-07-24T18:22:41;3.38;;;2.00;;
15381;SDS011;7789;51.364;12.358;2023-07-24T18:27:49;5.32;;;2.15;;
15381;SDS011;7789;51.364;12.358;2023-07-24T18:33:00;4.70;;;2.13;;
15381;SDS011;7789;51.364;12.358;2023-07-24T18:38:20;2.83;;;1.80;;
15381;SDS011;7789;51.364;12.358;2023-07-24T18:43:36;3.85;;;2.17;;
15381;SDS011;7789;51.364;12.358;2023-07-24T18:54:21;5.43;;;1.95;;
15381;SDS011;7789;51.364;12.358;2023-07-24T18:59:30;2.60;;;1.73;;
15381;SDS011;7789;51.364;12.358;2023-07-24T19:04:42;5.32;;;2.00;;
15381;SDS011;7789;51.364;12.358;2023-07-24T19:09:50;2.67;;;1.70;;
15381;SDS011;7789;51.364;12.358;2023-07-24T19:15:00;2.08;;;1.50;;
15381;SDS011;7789;51.364;12.358;2023-07-24T19:20:15;2.80;;;1.95;;
15381;SDS011;7789;51.364;12.358;2023-07-24T19:25:28;3.58;;;2.22;;
15381;SDS011;7789;51.364;12.358;2023-07-24T19:30:49;2.85;;;2.10;;
15381;SDS011;7789;51.364;12.358;2023-07-24T19:36:01;2.50;;;1.80;;
15381;SDS011;7789;51.364;12.358;2023-07-24T19:41:10;2.00;;;1.77;;
15381;SDS011;7789;51.364;12.358;2023-07-24T19:46:19;2.85;;;2.03;;
15381;SDS011;7789;51.364;12.358;2023-07-24T19:51:28;4.13;;;2.28;;
15381;SDS011;7789;51.364;12.358;2023-07-24T19:56:46;3.45;;;2.20;;
15381;SDS011;7789;51.364;12.358;2023-07-24T20:02:03;3.42;;;2.22;;
15381;SDS011;7789;51.364;12.358;2023-07-24T20:12:37;4.10;;;2.20;;
15381;SDS011;7789;51.364;12.358;2023-07-24T20:18:08;4.50;;;2.40;;
15381;SDS011;7789;51.364;12.358;2023-07-24T20:23:26;2.83;;;2.17;;
15381;SDS011;7789;51.364;12.358;2023-07-24T20:28:32;4.82;;;2.10;;
15381;SDS011;7789;51.364;12.358;2023-07-24T20:33:40;3.47;;;2.10;;
15381;SDS011;7789;51.364;12.358;2023-07-24T20:38:54;4.50;;;2.20;;
15381;SDS011;7789;51.364;12.358;2023-07-24T20:43:59;5.65;;;2.30;;
15381;SDS011;7789;51.364;12.358;2023-07-24T20:49:07;3.13;;;1.88;;
15381;SDS011;7789;51.364;12.358;2023-07-24T20:54:16;2.22;;;1.70;;
15381;SDS011;7789;51.364;12.358;2023-07-24T20:59:22;4.82;;;1.92;;
15381;SDS011;7789;51.364;12.358;2023-07-24T21:04:28;3.42;;;1.80;;
15381;SDS011;7789;51.364;12.358;2023-07-24T21:09:37;3.03;;;2.30;;
15381;SDS011;7789;51.364;12.358;2023-07-24T21:14:46;2.50;;;1.83;;
15381;SDS011;7789;51.364;12.358;2023-07-24T21:19:56;6.47;;;2.88;;
15381;SDS011;7789;51.364;12.358;2023-07-24T21:25:07;3.55;;;2.22;;
15381;SDS011;7789;51.364;12.358;2023-07-24T21:30:18;2.38;;;1.83;;
15381;SDS011;7789;51.364;12.358;2023-07-24T21:35:26;5.20;;;2.33;;
15381;SDS011;7789;51.364;12.358;2023-07-24T21:46:11;2.17;;;1.50;;
15381;SDS011;7789;51.364;12.358;2023-07-24T21:51:20;3.75;;;2.08;;
15381;SDS011;7789;51.364;12.358;2023-07-24T21:56:31;4.78;;;1.95;;
15381;SDS011;7789;51.364;12.358;2023-07-24T22:01:41;2.15;;;1.88;;
15381;SDS011;7789;51.364;12.358;2023-07-24T22:06:57;2.90;;;2.17;;
15381;SDS011;7789;51.364;12.358;2023-07-24T22:12:17;3.28;;;2.40;;
15381;SDS011;7789;51.364;12.358;2023-07-24T22:17:25;2.42;;;2.03;;
15381;SDS011;7789;51.364;12.358;2023-07-24T22:22:43;3.17;;;2.40;;
15381;SDS011;7789;51.364;12.358;2023-07-24T22:27:51;2.65;;;2.00;;
15381;SDS011;7789;51.364;12.358;2023-07-24T22:32:58;3.85;;;2.40;;
15381;SDS011;7789;51.364;12.358;2023-07-24T22:38:11;4.10;;;2.30;;
15381;SDS011;7789;51.364;12.358;2023-07-24T22:43:23;6.65;;;3.00;;
15381;SDS011;7789;51.364;12.358;2023-07-24T22:48:31;5.30;;;2.25;;
15381;SDS011;7789;51.364;12.358;2023-07-24T22:53:44;4.35;;;2.08;;
15381;SDS011;7789;51.364;12.358;2023-07-24T23:04:27;3.10;;;2.40;;
15381;SDS011;7789;51.364;12.358;2023-07-24T23:09:49;3.88;;;2.45;;
15381;SDS011;7789;51.364;12.358;2023-07-24T23:14:56;3.30;;;2.05;;
15381;SDS011;7789;51.364;12.358;2023-07-24T23:20:01;3.95;;;2.40;;
15381;SDS011;7789;51.364;12.358;2023-07-24T23:25:14;4.38;;;2.50;;
15381;SDS011;7789;51.364;12.358;2023-07-24T23:30:28;5.82;;;2.38;;
15381;SDS011;7789;51.364;12.358;2023-07-24T23:35:47;2.85;;;2.17;;
15381;SDS011;7789;51.364;12.358;2023-07-24T23:41:00;5.50;;;2.88;;
15381;SDS011;7789;51.364;12.358;2023-07-24T23:46:17;3.65;;;2.03;;
15381;SDS011;7789;51.364;12.358;2023-07-24T23:51:26;5.53;;;2.22;;
15381;SDS011;7789;51.364;12.358;2023-07-24T23:56:46;4.93;;;2.35;;
